M I D A S
Marine Information and Data Acquisition System
Tripno 1764 of the Zeeleeuw from 2009-07-14 06:55:09 to 2009-07-14 15:07:34
Back to CruiseResearch ActivitiesStationsMapUnderway DataData graphs

EquipmentUnitsComment
TimeDGPSUTC
LatitudeDGPSDM.mWGS84
LongitudeDGPSDM.mWGS84
TemperatureSBE03/SBE38deg celciusITS90
ConductivitySBE21S/mITS90
SalinitySBE21 Practical Salinity Units
ChlorophylAChelsea fluorimeterg/lCalibrated in Aceton
Missing or incorrect values are displayed as -999
Sea surface data collected by the RV Zeeleeuw from 2009-07-14 06:40:25 to 2009-07-14 15:14:00
Time Latitude Longitude Temperature Conductivity Salinity ChlorophylA
2009-07-14 06:41:31 51°13.663 2°55.96 22.7528 0.178571 0.925907 36.992474
2009-07-14 06:42:30 51°13.663 2°55.96 22.7616 0.176924 0.917029 37.027298
2009-07-14 06:43:30 51°13.663 2°55.96 22.7645 0.177851 0.922138 37.027298
2009-07-14 06:44:30 51°13.663 2°55.96 22.7679 0.176615 0.915483 37.062123
2009-07-14 06:45:30 51°13.662 2°55.96 22.7694 0.176204 0.913304 37.096947
2009-07-14 06:46:30 51°13.664 2°55.949 22.7571 0.155619 0.801884 37.096947
2009-07-14 06:47:34 51°13.681 2°55.88 22.7907 0.166426 0.860359 37.096947
2009-07-14 06:48:33 51°13.696 2°55.805 22.8109 0.166323 0.859885 37.096947
2009-07-14 06:49:32 51°13.702 2°55.759 22.8003 0.1655 0.855522 37.131771
2009-07-14 06:50:31 51°13.7 2°55.751 22.7969 0.145224 0.746171 37.166595
2009-07-14 06:51:30 51°13.709 2°55.748 22.8412 0.197304 1.028944 37.131771
2009-07-14 06:52:30 51°13.763 2°55.697 22.7559 0.090883 0.458089 37.166595
2009-07-14 06:53:30 51°13.862 2°55.609 22.7962 0.08368 0.420628 37.166595
2009-07-14 06:54:30 51°13.982 2°55.521 22.8043 0.085532 0.430274 37.201419
2009-07-14 06:55:30 51°14.106 2°55.424 20.2724 4.611553 32.161217 16.446283
2009-07-14 06:56:30 51°14.23 2°55.302 19.8885 4.38296 31.404407 15.99357
2009-07-14 06:57:30 51°14.332 2°55.122 19.7601 4.34342 31.310549 18.953615
2009-07-14 06:58:30 51°14.441 2°54.933 19.743 4.341865 31.386196 20.346577
2009-07-14 06:59:30 51°14.57 2°54.731 19.7209 4.33844 31.382831 21.252002
2009-07-14 07:00:30 51°14.725 2°54.552 19.6498 4.343007 31.443493 22.052955
2009-07-14 07:01:30 51°14.894 2°54.401 19.4588 4.40352 32.007767 24.212047
2009-07-14 07:02:30 51°15.067 2°54.265 19.3689 4.487816 32.814559 26.092546
2009-07-14 07:03:30 51°15.235 2°54.12 19.2989 4.52291 33.167842 26.614906
2009-07-14 07:04:30 51°15.405 2°53.981 19.2821 4.558214 33.515303 26.928323
2009-07-14 07:05:30 51°15.575 2°53.842 19.2753 4.56704 33.599911 26.858675
2009-07-14 07:06:30 51°15.75 2°53.717 19.2844 4.574101 33.662495 26.893499
2009-07-14 07:07:30 51°15.937 2°53.644 19.2902 4.576385 33.678802 27.137267
2009-07-14 07:08:30 51°16.109 2°53.504 19.2956 4.574412 33.655617 28.913294
2009-07-14 07:09:30 51°16.276 2°53.342 19.2845 4.572232 33.637023 30.306256
2009-07-14 07:10:30 51°16.446 2°53.172 19.2728 4.572439 33.645026 30.445552
2009-07-14 07:11:30 51°16.628 2°53.039 19.2342 4.579916 33.724937 30.097312
2009-07-14 07:12:30 51°16.808 2°52.904 19.2134 4.58272 33.77525 29.749071
2009-07-14 07:13:30 51°16.985 2°52.763 19.211 4.584278 33.800143 29.400831
2009-07-14 07:14:30 51°17.164 2°52.623 19.1912 4.586771 33.829603 28.87847
2009-07-14 07:15:30 51°17.346 2°52.487 19.1598 4.592378 33.894366 28.077517
2009-07-14 07:16:30 51°17.532 2°52.382 19.1304 4.600063 33.977034 27.241739
2009-07-14 07:17:30 51°17.732 2°52.349 19.0832 4.606294 34.059943 26.47561
2009-07-14 07:18:30 51°17.933 2°52.328 19.0415 4.61128 34.136545 25.813953
2009-07-14 07:19:30 51°18.134 2°52.299 18.9862 4.614707 34.201678 25.152296
2009-07-14 07:20:30 51°18.336 2°52.266 18.9531 4.616681 34.260696 24.629935
2009-07-14 07:21:30 51°18.538 2°52.252 18.9092 4.616786 34.286808 24.351343
2009-07-14 07:22:30 51°18.74 2°52.247 18.8836 4.617305 34.327459 24.07275
2009-07-14 07:23:30 51°18.941 2°52.24 18.8676 4.616163 34.332884 24.003102
2009-07-14 07:24:30 51°19.142 2°52.237 18.8612 4.614398 34.335071 23.89863
2009-07-14 07:25:30 51°19.343 2°52.239 18.8639 4.611906 34.31819 23.968278
2009-07-14 07:26:30 51°19.543 2°52.23 18.904 4.605883 34.258887 24.386167
2009-07-14 07:27:30 51°19.742 2°52.218 18.9407 4.592279 34.114533 24.908528
2009-07-14 07:28:30 51°19.941 2°52.209 18.9863 4.576702 33.952194 25.674657
2009-07-14 07:29:30 51°20.144 2°52.206 19.0086 4.561852 33.796291 26.30149
2009-07-14 07:30:30 51°20.345 2°52.203 19.0207 4.552403 33.703287 26.47561
2009-07-14 07:31:30 51°20.544 2°52.195 19.0149 4.543785 33.625515 27.624804
2009-07-14 07:32:30 51°20.743 2°52.191 19.0067 4.532052 33.532116 28.843646
2009-07-14 07:33:30 51°20.943 2°52.185 19.0013 4.522085 33.457141 29.331183
2009-07-14 07:34:30 51°21.143 2°52.179 19.0031 4.511183 33.368763 29.05259
2009-07-14 07:35:30 51°21.342 2°52.17 19.0104 4.502566 33.29555 28.460581
2009-07-14 07:36:30 51°21.543 2°52.161 19.018 4.496232 33.235627 27.7641
2009-07-14 07:37:30 51°21.744 2°52.155 19.0278 4.490626 33.183629 27.206915
2009-07-14 07:38:30 51°21.947 2°52.159 19.0338 4.487615 33.151864 27.206915
2009-07-14 07:39:30 51°22.151 2°52.162 19.0255 4.490107 33.169336 26.684555
2009-07-14 07:40:30 51°22.356 2°52.166 19.0175 4.494156 33.209063 26.371138
2009-07-14 07:41:30 51°22.557 2°52.169 19.0002 4.497374 33.245074 26.266666
2009-07-14 07:42:30 51°22.758 2°52.171 18.9859 4.499866 33.278232 25.570185
2009-07-14 07:43:30 51°22.96 2°52.171 18.9735 4.50132 33.301567 25.117472
2009-07-14 07:44:30 51°23.162 2°52.164 18.9515 4.501839 33.316551 24.943352
2009-07-14 07:45:30 51°23.367 2°52.166 18.9407 4.502151 33.333601 24.595111
2009-07-14 07:46:30 51°23.571 2°52.166 18.9299 4.502567 33.347748 24.246871
2009-07-14 07:47:30 51°23.774 2°52.164 18.9102 4.503813 33.369422 23.968278
2009-07-14 07:48:30 51°23.976 2°52.158 18.8985 4.504124 33.382731 23.968278
2009-07-14 07:49:30 51°24.178 2°52.146 18.8864 4.503502 33.388927 23.794158
2009-07-14 07:50:30 51°24.38 2°52.141 18.8742 4.502463 33.389154 23.759334
2009-07-14 07:51:30 51°24.58 2°52.134 18.8531 4.502152 33.398575 23.72451
2009-07-14 07:52:30 51°24.78 2°52.133 18.8382 4.50101 33.403637 23.55039
2009-07-14 07:53:30 51°24.981 2°52.128 18.8281 4.498311 33.391968 23.306621
2009-07-14 07:54:30 51°25.184 2°52.121 18.8194 4.496546 33.384263 23.202149
2009-07-14 07:55:30 51°25.388 2°52.121 18.812 4.494989 33.379547 23.097677
2009-07-14 07:56:30 51°25.592 2°52.121 18.8186 4.494782 33.380985 23.028029
2009-07-14 07:57:30 51°25.795 2°52.127 18.8053 4.49665 33.393353 22.958381
2009-07-14 07:58:30 51°25.997 2°52.128 18.7742 4.499558 33.432091 22.993205
2009-07-14 07:59:30 51°26.197 2°52.116 18.7447 4.50205 33.477577 22.993205
2009-07-14 08:00:30 51°26.399 2°52.113 18.7134 4.502258 33.505386 22.993205
2009-07-14 08:01:30 51°26.604 2°52.112 18.7083 4.501947 33.521264 22.993205
2009-07-14 08:02:30 51°26.806 2°52.096 18.6912 4.503608 33.542762 22.888733
2009-07-14 08:03:30 51°27.007 2°52.079 18.6678 4.506619 33.582556 22.853909
2009-07-14 08:04:30 51°27.21 2°52.067 18.6514 4.509319 33.62171 22.78426
2009-07-14 08:05:30 51°27.413 2°52.052 18.64 4.511603 33.652309 22.644964
2009-07-14 08:06:30 51°27.616 2°52.038 18.6261 4.513472 33.67818 22.644964
2009-07-14 08:07:30 51°27.818 2°52.021 18.6093 4.51368 33.690188 22.61014
2009-07-14 08:08:30 51°28.02 2°52.006 18.596 4.512435 33.694552 22.470844
2009-07-14 08:09:30 51°28.222 2°51.989 18.5828 4.509839 33.682493 22.470844
2009-07-14 08:10:30 51°28.424 2°51.979 18.5741 4.507348 33.670656 22.401196
2009-07-14 08:11:30 51°28.625 2°51.975 18.5714 4.505686 33.664476 22.470844
2009-07-14 08:12:30 51°28.827 2°51.969 18.5657 4.504025 33.653152 22.540492
2009-07-14 08:13:30 51°29.03 2°51.973 18.5623 4.502053 33.640508 22.540492
2009-07-14 08:14:30 51°29.235 2°51.98 18.5526 4.501845 33.643269 22.470844
2009-07-14 08:15:30 51°29.437 2°51.986 18.531 4.50361 33.662534 22.43602
2009-07-14 08:16:30 51°29.637 2°51.987 18.4799 4.508075 33.726952 22.296724
2009-07-14 08:17:30 51°29.836 2°51.988 18.4414 4.512021 33.797485 22.192252
2009-07-14 08:18:30 51°30.036 2°51.988 18.4042 4.514098 33.846009 22.192252
2009-07-14 08:19:30 51°30.237 2°51.987 18.3818 4.516591 33.897471 22.192252
2009-07-14 08:20:30 51°30.438 2°51.982 18.3586 4.518771 33.934028 22.227076
2009-07-14 08:21:30 51°30.64 2°51.975 18.339 4.52116 33.97107 22.331548
2009-07-14 08:22:30 51°30.843 2°51.963 18.3232 4.522925 34.000948 22.296724
2009-07-14 08:23:30 51°31.046 2°51.952 18.3144 4.523548 34.016002 22.296724
2009-07-14 08:24:30 51°31.249 2°51.942 18.3089 4.523964 34.025388 22.2619
2009-07-14 08:25:30 51°31.451 2°51.937 18.2967 4.524171 34.035649 22.296724
2009-07-14 08:26:30 51°31.593 2°51.926 18.2875 4.52386 34.042195 22.331548
2009-07-14 08:27:30 51°31.67 2°51.907 18.2827 4.523237 34.044154 22.366372
2009-07-14 08:28:30 51°31.73 2°51.906 18.2775 4.522822 34.043276 22.366372
2009-07-14 08:29:30 51°31.763 2°51.959 18.2656 4.521784 34.041079 22.331548
2009-07-14 08:30:30 51°31.774 2°52.004 18.2621 4.520538 34.037131 22.331548
2009-07-14 08:31:30 51°31.782 2°52.04 18.2659 4.520123 34.034941 22.331548
2009-07-14 08:32:30 51°31.79 2°52.081 18.2673 4.520123 34.034941 22.401196
2009-07-14 08:33:30 51°31.802 2°52.121 18.266 4.520123 34.034285 22.331548
2009-07-14 08:34:30 51°31.812 2°52.131 18.2646 4.519915 34.033846 22.2619
2009-07-14 08:35:30 51°31.822 2°52.137 18.2664 4.519707 34.032751 22.192252
2009-07-14 08:36:30 51°31.831 2°52.142 18.2609 4.519604 34.031875 22.157428
2009-07-14 08:37:30 51°31.84 2°52.145 18.257 4.518981 34.030556 22.052955
2009-07-14 08:38:31 51°31.852 2°52.118 18.2594 4.518877 34.029025 21.983307
2009-07-14 08:39:31 51°31.856 2°52.124 18.2598 4.518877 34.02837 22.018131
2009-07-14 08:40:30 51°31.82 2°52.145 18.2525 4.518669 34.027274 22.052955
2009-07-14 08:41:30 51°31.785 2°52.116 18.2562 4.51815 34.027486 22.122603
2009-07-14 08:42:30 51°31.779 2°52.095 18.2633 4.518565 34.027054 22.157428
2009-07-14 08:43:30 51°31.787 2°52.099 18.2672 4.519084 34.028809 22.122603
2009-07-14 08:44:30 51°31.794 2°52.105 18.2636 4.519292 34.029249 22.122603
2009-07-14 08:45:30 51°31.802 2°52.11 18.2616 4.519292 34.031216 22.157428
2009-07-14 08:46:30 51°31.81 2°52.115 18.2609 4.519396 34.032091 22.052955
2009-07-14 08:47:30 51°31.817 2°52.12 18.2661 4.5195 34.032311 21.983307
2009-07-14 08:48:30 51°31.821 2°52.133 18.2677 4.519915 34.03319 21.948483
2009-07-14 08:49:34 51°31.809 2°52.188 18.2707 4.520226 34.03385 21.878835
2009-07-14 08:50:32 51°31.808 2°52.2 18.2677 4.520226 34.033194 21.983307
2009-07-14 08:51:31 51°31.804 2°52.144 18.2664 4.519915 34.032535 22.087779
2009-07-14 08:52:30 51°31.772 2°52.046 18.2669 4.519915 34.031223 22.052955
2009-07-14 08:53:30 51°31.792 2°51.878 18.2669 4.519915 34.030568 22.018131
2009-07-14 08:54:30 51°31.8 2°51.706 18.2707 4.520123 34.03363 22.052955
2009-07-14 08:55:30 51°31.749 2°51.675 18.2706 4.520226 34.031883 22.122603
2009-07-14 08:56:30 51°31.725 2°51.717 18.2711 4.52033 34.031447 22.122603
2009-07-14 08:57:30 51°31.72 2°51.77 18.2688 4.52033 34.032758 22.157428
2009-07-14 08:58:30 51°31.72 2°51.835 18.2732 4.52033 34.032758 22.087779
2009-07-14 08:59:30 51°31.717 2°51.884 18.2732 4.520434 34.033634 22.087779
2009-07-14 09:00:30 51°31.722 2°51.887 18.2713 4.520538 34.035164 22.122603
2009-07-14 09:01:30 51°31.73 2°51.875 18.2707 4.520746 34.034948 22.087779
2009-07-14 09:02:30 51°31.739 2°51.853 18.2725 4.520849 34.037135 22.087779
2009-07-14 09:03:30 51°31.747 2°51.821 18.2742 4.521161 34.037138 22.018131
2009-07-14 09:04:30 51°31.754 2°51.813 18.2715 4.521368 34.038889 22.018131
2009-07-14 09:05:30 51°31.772 2°51.842 18.2712 4.521161 34.03845 21.983307
2009-07-14 09:06:30 51°31.803 2°51.89 18.2729 4.520953 34.03801 21.983307
2009-07-14 09:07:30 51°31.845 2°51.94 18.2802 4.521368 34.037578 21.948483
2009-07-14 09:08:30 51°31.895 2°51.984 18.2836 4.521888 34.038677 21.913659
2009-07-14 09:09:30 51°31.952 2°51.996 18.2844 4.522303 34.038245 21.878835
2009-07-14 09:10:30 51°32.007 2°51.967 18.2879 4.522303 34.037589 21.878835
2009-07-14 09:11:30 51°32.048 2°51.893 18.2907 4.522303 34.034968 21.878835
2009-07-14 09:12:30 51°32.053 2°51.795 18.2975 4.522199 34.032783 21.913659
2009-07-14 09:13:30 51°32.035 2°51.695 18.2966 4.522406 34.030602 21.948483
2009-07-14 09:14:30 51°32.002 2°51.599 18.2986 4.521887 34.024263 21.878835
2009-07-14 09:15:30 51°31.966 2°51.5 18.3013 4.521783 34.020769 21.878835
2009-07-14 09:16:30 51°31.933 2°51.399 18.2976 4.521576 34.01771 21.878835
2009-07-14 09:17:30 51°31.886 2°51.331 18.3032 4.520953 34.015735 21.878835
2009-07-14 09:18:30 51°31.828 2°51.286 18.3104 4.521368 34.013997 21.878835
2009-07-14 09:19:30 51°31.765 2°51.265 18.319 4.522198 34.01314 21.844011
2009-07-14 09:20:30 51°31.706 2°51.275 18.3191 4.523029 34.013593 21.809187
2009-07-14 09:21:30 51°31.654 2°51.321 18.3186 4.523133 34.01643 21.844011
2009-07-14 09:22:30 51°31.606 2°51.38 18.3197 4.523652 34.020147 21.809187
2009-07-14 09:23:30 51°31.58 2°51.454 18.3204 4.524171 34.025828 21.809187
2009-07-14 09:24:30 51°31.593 2°51.534 18.3233 4.524586 34.027362 21.844011
2009-07-14 09:25:30 51°31.618 2°51.623 18.3369 4.525832 34.031964 21.844011
2009-07-14 09:26:30 51°31.644 2°51.72 18.3318 4.527182 34.035476 21.844011
2009-07-14 09:27:30 51°31.673 2°51.82 18.3331 4.52687 34.03678 21.878835
2009-07-14 09:28:30 51°31.699 2°51.925 18.3317 4.527182 34.038094 21.913659
2009-07-14 09:29:30 51°31.73 2°52.023 18.333 4.526974 34.037 21.983307
2009-07-14 09:30:30 51°31.759 2°52.125 18.3376 4.527182 34.036785 21.983307
2009-07-14 09:31:30 51°31.788 2°52.225 18.3354 4.527493 34.034827 21.983307
2009-07-14 09:32:30 51°31.822 2°52.323 18.3481 4.527286 34.033733 21.983307
2009-07-14 09:33:30 51°31.854 2°52.424 18.3491 4.527805 34.03287 21.913659
2009-07-14 09:34:30 51°31.887 2°52.524 18.3463 4.527597 34.031122 21.878835
2009-07-14 09:35:30 51°31.937 2°52.584 18.3474 4.527493 34.02894 21.844011
2009-07-14 09:36:30 51°31.999 2°52.568 18.3605 4.527597 34.026544 21.878835
2009-07-14 09:37:30 51°32.033 2°52.481 18.3746 4.528635 34.024821 21.878835
2009-07-14 09:38:30 51°32.02 2°52.382 18.3747 4.529154 34.022001 21.809187
2009-07-14 09:39:30 51°31.973 2°52.303 18.3741 4.529154 34.019387 21.878835
2009-07-14 09:40:30 51°31.916 2°52.244 18.3823 4.528739 34.016547 21.844011
2009-07-14 09:41:30 51°31.862 2°52.184 18.3913 4.529881 34.015703 21.809187
2009-07-14 09:42:30 51°31.814 2°52.121 18.3934 4.530607 34.01855 21.809187
2009-07-14 09:43:30 51°31.772 2°52.047 18.3959 4.530919 34.018557 21.809187
2009-07-14 09:44:30 51°31.751 2°51.952 18.4005 4.53123 34.020523 21.774363
2009-07-14 09:45:30 51°31.737 2°51.851 18.3987 4.531853 34.021843 21.739539
2009-07-14 09:46:30 51°31.719 2°51.748 18.3983 4.531957 34.022716 21.739539
2009-07-14 09:47:30 51°31.7 2°51.643 18.3995 4.531646 34.022056 21.739539
2009-07-14 09:48:30 51°31.692 2°51.534 18.3994 4.532165 34.023156 21.704715
2009-07-14 09:49:30 51°31.685 2°51.429 18.3982 4.531853 34.024455 21.704715
2009-07-14 09:50:30 51°31.654 2°51.346 18.4007 4.531853 34.024455 21.704715
2009-07-14 09:51:30 51°31.606 2°51.301 18.4022 4.532269 34.024029 21.739539
2009-07-14 09:52:30 51°31.557 2°51.305 18.4025 4.532891 34.027308 21.704715
2009-07-14 09:53:30 51°31.525 2°51.354 18.4031 4.532995 34.028181 21.704715
2009-07-14 09:54:30 51°31.525 2°51.42 18.4118 4.533411 34.031019 21.704715
2009-07-14 09:55:30 51°31.55 2°51.485 18.4202 4.534553 34.033438 21.635067
2009-07-14 09:56:30 51°31.584 2°51.556 18.4241 4.535487 34.035417 21.669891
2009-07-14 09:57:30 51°31.612 2°51.638 18.4242 4.535902 34.037601 21.635067
2009-07-14 09:58:30 51°31.641 2°51.722 18.4171 4.535798 34.037382 21.635067
2009-07-14 09:59:30 51°31.67 2°51.805 18.4123 4.535383 34.037155 21.635067
2009-07-14 10:00:30 51°31.699 2°51.89 18.4061 4.534345 34.03561 21.704715
2009-07-14 10:01:30 51°31.729 2°51.972 18.4155 4.534137 34.033864 21.669891
2009-07-14 10:02:30 51°31.769 2°52.042 18.4217 4.534864 34.032139 21.635067
2009-07-14 10:03:30 51°31.804 2°52.113 18.4295 4.535383 34.030628 21.635067
2009-07-14 10:04:30 51°31.831 2°52.185 18.4208 4.535487 34.030196 21.635067
2009-07-14 10:05:30 51°31.853 2°52.264 18.4132 4.534656 34.028436 21.669891
2009-07-14 10:06:30 51°31.861 2°52.359 18.4231 4.533826 34.026024 21.669891
2009-07-14 10:07:30 51°31.854 2°52.46 18.4299 4.534449 34.022776 21.600243
2009-07-14 10:08:30 51°31.842 2°52.562 18.4343 4.53476 34.022132 21.600243
2009-07-14 10:09:30 51°31.849 2°52.657 18.4298 4.534864 34.019743 21.600243
2009-07-14 10:10:30 51°31.891 2°52.705 18.4314 4.534345 34.01799 21.635067
2009-07-14 10:11:30 51°31.943 2°52.68 18.4405 4.534552 34.015822 21.600243
2009-07-14 10:12:30 51°31.973 2°52.594 18.4514 4.535175 34.014535 21.635067
2009-07-14 10:13:30 51°31.96 2°52.49 18.4576 4.535798 34.012597 21.635067
2009-07-14 10:14:30 51°31.911 2°52.403 18.463 4.536213 34.010872 21.635067
2009-07-14 10:15:30 51°31.846 2°52.325 18.4647 4.536525 34.009578 21.635067
2009-07-14 10:16:30 51°31.798 2°52.224 18.4502 4.536213 34.007614 21.600243
2009-07-14 10:17:30 51°31.774 2°52.114 18.4547 4.535175 34.008669 21.600243
2009-07-14 10:18:30 51°31.753 2°52.008 18.4535 4.535798 34.008036 21.635067
2009-07-14 10:19:30 51°31.734 2°51.905 18.4444 4.535487 34.008678 21.669891
2009-07-14 10:20:30 51°31.722 2°51.802 18.4366 4.534552 34.010606 21.635067
2009-07-14 10:21:30 51°31.714 2°51.699 18.4437 4.534241 34.009945 21.600243
2009-07-14 10:22:30 51°31.706 2°51.596 18.4527 4.534967 34.009532 21.565419
2009-07-14 10:23:30 51°31.697 2°51.493 18.4648 4.535798 34.009991 21.565419
2009-07-14 10:24:30 51°31.683 2°51.392 18.4747 4.537148 34.011551 21.565419
2009-07-14 10:25:30 51°31.649 2°51.309 18.4796 4.537978 34.011359 21.565419
2009-07-14 10:26:30 51°31.594 2°51.266 18.4788 4.538393 34.01224 21.565419
2009-07-14 10:27:30 51°31.54 2°51.288 18.4808 4.538497 34.011809 21.565419
2009-07-14 10:28:30 51°31.524 2°51.36 18.4777 4.538601 34.013331 21.530595
2009-07-14 10:29:30 51°31.548 2°51.442 18.4836 4.538601 34.013983 21.530595
2009-07-14 10:30:30 51°31.577 2°51.543 18.4922 4.539743 34.017056 21.460946
2009-07-14 10:31:30 51°31.611 2°51.642 18.493 4.54047 34.019248 21.495771
2009-07-14 10:32:30 51°31.647 2°51.738 18.4891 4.540574 34.018817 21.495771
2009-07-14 10:33:30 51°31.682 2°51.833 18.4822 4.540055 34.017716 21.495771
2009-07-14 10:34:30 51°31.715 2°51.931 18.4909 4.539535 34.014662 21.460946
2009-07-14 10:35:30 51°31.746 2°52.03 18.4943 4.539951 34.012288 21.495771
2009-07-14 10:36:30 51°31.778 2°52.129 18.4955 4.539743 34.009244 21.495771
2009-07-14 10:37:30 51°31.81 2°52.227 18.4908 4.539431 34.007933 21.460946
2009-07-14 10:38:30 51°31.84 2°52.324 18.489 4.539016 34.004448 21.495771
2009-07-14 10:39:30 51°31.864 2°52.425 18.4838 4.538186 34.000733 21.460946
2009-07-14 10:40:30 51°31.883 2°52.528 18.4791 4.536628 33.99222 21.460946
2009-07-14 10:41:30 51°31.899 2°52.632 18.4624 4.534448 33.981731 21.460946
2009-07-14 10:42:30 51°31.927 2°52.716 18.4697 4.532683 33.972773 21.426122
2009-07-14 10:43:30 51°31.979 2°52.705 18.4806 4.531748 33.961678 21.426122
2009-07-14 10:44:30 51°32.012 2°52.619 18.4854 4.531748 33.952576 21.460946
2009-07-14 10:45:30 51°32.004 2°52.516 18.4908 4.530606 33.938447 21.426122
2009-07-14 10:46:30 51°31.963 2°52.423 18.5022 4.530294 33.930639 21.426122
2009-07-14 10:47:30 51°31.906 2°52.343 18.5091 4.525518 33.881511 21.391298
2009-07-14 10:48:30 51°31.855 2°52.265 18.5101 4.53019 33.915491 21.356474
2009-07-14 10:49:30 51°31.816 2°52.177 18.5164 4.526245 33.88177 21.356474
2009-07-14 10:50:30 51°31.79 2°52.084 18.5187 4.530709 33.915303 21.356474
2009-07-14 10:51:30 51°31.771 2°51.988 18.5212 4.531021 33.916616 21.356474
2009-07-14 10:52:30 51°31.742 2°51.888 18.5306 4.531644 33.917947 21.356474
2009-07-14 10:53:30 51°31.706 2°51.785 18.5475 4.532993 33.920181 21.32165
2009-07-14 10:54:30 51°31.669 2°51.679 18.5497 4.535174 33.928076 21.286826
2009-07-14 10:55:30 51°31.634 2°51.578 18.5411 4.536108 33.933311 21.32165
2009-07-14 10:56:30 51°31.602 2°51.496 18.5397 4.535901 33.938704 21.32165
2009-07-14 10:57:30 51°31.559 2°51.429 18.5312 4.536004 33.940871 21.32165
2009-07-14 10:58:30 51°31.5 2°51.435 18.5271 4.535693 33.943451 21.356474
2009-07-14 10:59:30 51°31.494 2°51.495 18.5133 4.535278 33.947108 21.391298
2009-07-14 11:00:30 51°31.532 2°51.555 18.512 4.534551 33.952051 21.391298
2009-07-14 11:01:30 51°31.576 2°51.637 18.5041 4.535589 33.95751 21.391298
2009-07-14 11:02:30 51°31.62 2°51.716 18.5092 4.535174 33.961822 21.426122
2009-07-14 11:03:30 51°31.653 2°51.761 18.5117 4.535486 33.961186 21.426122
2009-07-14 11:04:30 51°31.679 2°51.798 18.5214 4.535589 33.958809 21.391298
2009-07-14 11:05:30 51°31.7 2°51.832 18.5207 4.535693 33.951887 21.32165
2009-07-14 11:06:30 51°31.715 2°51.853 18.5173 4.534655 33.947728 21.32165
2009-07-14 11:07:30 51°31.718 2°51.861 18.5268 4.533201 33.932947 21.32165
2009-07-14 11:08:30 51°31.714 2°51.865 18.5243 4.53372 33.932756 21.286826
2009-07-14 11:09:30 51°31.706 2°51.864 18.5259 4.533305 33.928627 21.252002
2009-07-14 11:10:30 51°31.696 2°51.861 18.5281 4.532578 33.922536 21.252002
2009-07-14 11:11:30 51°31.685 2°51.856 18.5326 4.532059 33.916888 21.217178
2009-07-14 11:12:30 51°31.674 2°51.861 18.5269 4.531644 33.911463 21.182354
2009-07-14 11:13:30 51°31.683 2°51.905 18.5294 4.530917 33.907966 21.182354
2009-07-14 11:14:30 51°31.72 2°51.947 18.5205 4.530398 33.902319 21.182354
2009-07-14 11:15:30 51°31.757 2°52.024 18.5212 4.529152 33.895119 21.286826
2009-07-14 11:16:30 51°31.793 2°52.057 18.5202 4.527906 33.891158 21.32165
2009-07-14 11:17:30 51°31.798 2°52.098 18.5337 4.527387 33.880976 21.356474
2009-07-14 11:18:30 51°31.792 2°52.13 18.535 4.527387 33.872558 21.391298
2009-07-14 11:19:30 51°31.781 2°52.139 18.5342 4.527283 33.870394 21.426122
2009-07-14 11:20:30 51°31.766 2°52.141 18.524 4.526245 33.864932 21.391298
2009-07-14 11:21:30 51°31.748 2°52.14 18.5292 4.524999 33.858378 21.356474
2009-07-14 11:22:30 51°31.753 2°52.18 18.5245 4.52448 33.853381 21.356474
2009-07-14 11:23:30 51°31.807 2°52.194 18.5165 4.523753 33.849234 21.32165
2009-07-14 11:24:30 51°31.836 2°52.14 18.5148 4.522299 33.843526 21.391298
2009-07-14 11:25:30 51°31.824 2°52.106 18.5153 4.521053 33.836968 21.356474
2009-07-14 11:26:30 51°31.819 2°52.089 18.5197 4.52043 33.82528 21.286826
2009-07-14 11:27:30 51°31.816 2°52.097 18.5018 4.520119 33.829138 21.391298
2009-07-14 11:28:30 51°31.806 2°52.103 18.5087 4.518769 33.82365 21.426122
2009-07-14 11:29:30 51°31.792 2°52.104 18.5249 4.519081 33.819791 21.356474
2009-07-14 11:30:30 51°31.775 2°52.099 18.5308 4.519807 33.814242 21.356474
2009-07-14 11:31:30 51°31.757 2°52.09 18.5377 4.518561 33.801222 21.286826
2009-07-14 11:32:30 51°31.739 2°52.068 18.5485 4.519807 33.803904 21.286826
2009-07-14 11:33:30 51°31.731 2°52.075 18.5533 4.520118 33.798763 21.252002
2009-07-14 11:34:30 51°31.762 2°52.095 18.5517 4.520222 33.796404 21.252002
2009-07-14 11:35:30 51°31.78 2°52.112 18.5655 4.520118 33.792953 21.252002
2009-07-14 11:36:30 51°31.792 2°52.119 18.5572 4.520014 33.787567 21.286826
2009-07-14 11:37:30 51°31.791 2°52.123 18.5606 4.518249 33.776666 21.286826
2009-07-14 11:38:30 51°31.779 2°52.112 18.5564 4.518457 33.777759 21.32165
2009-07-14 11:39:30 51°31.764 2°52.096 18.5556 4.518561 33.779273 21.32165
2009-07-14 11:40:30 51°31.747 2°52.08 18.5527 4.518146 33.775797 21.286826
2009-07-14 11:41:30 51°31.729 2°52.061 18.5454 4.517627 33.775322 21.32165
2009-07-14 11:42:30 51°31.712 2°52.041 18.5353 4.516588 33.775019 21.286826
2009-07-14 11:43:30 51°31.694 2°52.019 18.5436 4.515862 33.774096 21.286826
2009-07-14 11:44:30 51°31.676 2°51.995 18.5492 4.516069 33.768737 21.252002
2009-07-14 11:45:30 51°31.658 2°51.969 18.5629 4.516588 33.764697 21.217178
2009-07-14 11:46:30 51°31.641 2°51.944 18.566 4.515342 33.746536 21.182354
2009-07-14 11:47:30 51°31.626 2°51.919 18.5676 4.516069 33.750039 21.217178
2009-07-14 11:48:30 51°31.61 2°51.895 18.5582 4.514615 33.739811 21.252002
2009-07-14 11:49:30 51°31.595 2°51.871 18.5518 4.514096 33.739333 21.217178
2009-07-14 11:50:30 51°31.58 2°51.846 18.5488 4.516173 33.763801 21.252002
2009-07-14 11:51:30 51°31.562 2°51.821 18.5396 4.51555 33.765036 21.252002
2009-07-14 11:52:30 51°31.546 2°51.795 18.5381 4.515135 33.764785 21.286826
2009-07-14 11:53:30 51°31.518 2°51.793 18.5376 4.514927 33.763692 21.286826
2009-07-14 11:54:30 51°31.443 2°51.906 18.5359 4.514823 33.764758 21.286826
2009-07-14 11:55:30 51°31.34 2°52.097 18.5146 4.514512 33.763441 21.426122
2009-07-14 11:56:30 51°31.251 2°52.351 18.4939 4.513163 33.772148 21.600243
2009-07-14 11:57:30 51°31.164 2°52.62 18.4716 4.511917 33.781092 21.809187
2009-07-14 11:58:30 51°31.075 2°52.889 18.453 4.510671 33.78746 21.844011
2009-07-14 11:59:30 51°30.986 2°53.157 18.448 4.510152 33.790225 21.878835
2009-07-14 12:00:30 51°30.9 2°53.427 18.4454 4.510049 33.793237 21.844011
2009-07-14 12:01:30 51°30.812 2°53.699 18.4307 4.510568 33.801477 21.878835
2009-07-14 12:02:30 51°30.749 2°53.899 18.4106 4.510568 33.816378 21.948483
2009-07-14 12:03:30 51°30.73 2°53.986 18.4101 4.510257 33.825435 22.018131
2009-07-14 12:04:30 51°30.714 2°54.023 18.4188 4.510672 33.827625 22.052955
2009-07-14 12:05:30 51°30.697 2°54.037 18.4131 4.510776 33.827848 22.052955
2009-07-14 12:06:30 51°30.68 2°54.036 18.4088 4.510257 33.826084 21.948483
2009-07-14 12:07:30 51°30.663 2°54.03 18.4037 4.510049 33.826286 21.913659
2009-07-14 12:08:30 51°30.647 2°54.019 18.4001 4.509323 33.825374 21.878835
2009-07-14 12:09:30 51°30.633 2°54.001 18.3981 4.509219 33.825799 21.809187
2009-07-14 12:10:30 51°30.621 2°53.982 18.3972 4.509011 33.824704 21.739539
2009-07-14 12:11:30 51°30.609 2°53.964 18.3968 4.508907 33.823832 21.704715
2009-07-14 12:12:30 51°30.597 2°53.946 18.3915 4.508596 33.823163 21.635067
2009-07-14 12:13:30 51°30.586 2°53.928 18.3935 4.508181 33.822271 21.635067
2009-07-14 12:14:30 51°30.575 2°53.911 18.3924 4.507869 33.821601 21.600243
2009-07-14 12:15:30 51°30.563 2°53.894 18.3946 4.507869 33.820952 21.565419
2009-07-14 12:16:30 51°30.552 2°53.878 18.3947 4.508077 33.820101 21.600243
2009-07-14 12:17:30 51°30.54 2°53.863 18.393 4.508284 33.819898 21.530595
2009-07-14 12:18:30 51°30.528 2°53.848 18.3946 4.507869 33.819654 21.530595
2009-07-14 12:19:30 51°30.515 2°53.833 18.3927 4.508181 33.819675 21.495771
2009-07-14 12:20:30 51°30.504 2°53.819 18.3994 4.508077 33.820101 21.460946
2009-07-14 12:21:30 51°30.492 2°53.805 18.3977 4.508077 33.818803 21.426122
2009-07-14 12:22:30 51°30.48 2°53.792 18.4011 4.508181 33.818378 21.391298
2009-07-14 12:23:30 51°30.467 2°53.778 18.4037 4.508596 33.817324 21.426122
2009-07-14 12:24:30 51°30.455 2°53.763 18.415 4.508803 33.818419 21.391298
2009-07-14 12:25:30 51°30.444 2°53.749 18.4158 4.509426 33.816516 21.391298
2009-07-14 12:26:30 51°30.432 2°53.735 18.4156 4.509322 33.816293 21.426122
2009-07-14 12:27:30 51°30.42 2°53.722 18.4218 4.509426 33.815868 21.426122
2009-07-14 12:28:30 51°30.408 2°53.708 18.4198 4.509842 33.815464 21.391298
2009-07-14 12:29:30 51°30.357 2°53.72 18.421 4.509842 33.814816 21.391298
2009-07-14 12:30:30 51°30.283 2°53.877 18.5127 4.509945 33.808558 21.426122
2009-07-14 12:31:30 51°30.213 2°54.118 18.6069 4.510151 33.725644 21.495771
2009-07-14 12:32:30 51°30.173 2°54.392 18.6333 4.507451 33.64199 21.635067
2009-07-14 12:33:30 51°30.142 2°54.668 18.6545 4.501429 33.570565 21.739539
2009-07-14 12:34:30 51°30.106 2°54.944 18.6628 4.49686 33.519665 21.844011
2009-07-14 12:35:30 51°30.068 2°55.217 18.6678 4.493745 33.482206 21.878835
2009-07-14 12:36:30 51°30.026 2°55.492 18.6715 4.490735 33.455191 21.948483
2009-07-14 12:37:30 51°29.983 2°55.767 18.6924 4.488554 33.430016 21.983307
2009-07-14 12:38:30 51°29.949 2°56.043 18.7146 4.487516 33.407379 22.052955
2009-07-14 12:39:30 51°29.935 2°56.319 18.7524 4.487619 33.381584 22.052955
2009-07-14 12:40:30 51°29.922 2°56.597 18.7593 4.487307 33.358712 22.087779
2009-07-14 12:41:30 51°29.906 2°56.875 18.7643 4.484919 33.335684 22.122603
2009-07-14 12:42:30 51°29.899 2°57.155 18.8219 4.483466 33.315375 22.157428
2009-07-14 12:43:30 51°29.887 2°57.438 18.8745 4.48253 33.252088 22.192252
2009-07-14 12:44:30 51°29.877 2°57.721 18.9056 4.474744 33.154195 22.227076
2009-07-14 12:45:30 51°29.863 2°58 18.8842 4.466023 33.066284 22.366372
2009-07-14 12:46:30 51°29.844 2°58.281 18.8646 4.454915 32.991135 22.540492
2009-07-14 12:47:30 51°29.829 2°58.562 18.8705 4.447545 32.943172 22.644964
2009-07-14 12:48:30 51°29.817 2°58.843 18.8867 4.443911 32.90249 22.679788
2009-07-14 12:49:30 51°29.804 2°59.122 18.8958 4.441212 32.86833 22.749436
2009-07-14 12:50:30 51°29.79 2°59.402 18.9093 4.438616 32.840022 22.819085
2009-07-14 12:51:30 51°29.774 2°59.684 18.9313 4.437059 32.813495 22.853909
2009-07-14 12:52:30 51°29.759 2°59.966 18.9546 4.436021 32.788807 22.923557
2009-07-14 12:53:30 51°29.745 3°0.246 18.9722 4.435917 32.771245 22.958381
2009-07-14 12:54:30 51°29.727 3°0.525 18.9656 4.436228 32.762692 22.958381
2009-07-14 12:55:30 51°29.709 3°0.805 18.963 4.434775 32.756868 23.028029
2009-07-14 12:56:30 51°29.698 3°1.084 18.98 4.433217 32.742771 23.097677
2009-07-14 12:57:30 51°29.685 3°1.363 19.0359 4.432906 32.721684 23.132501
2009-07-14 12:58:30 51°29.675 3°1.646 19.1234 4.434462 32.682183 23.167325
2009-07-14 12:59:30 51°29.666 3°1.935 19.2213 4.437471 32.638852 23.271797
2009-07-14 13:00:30 51°29.656 3°2.226 19.2363 4.428542 32.502633 23.863806
2009-07-14 13:01:30 51°29.643 3°2.519 19.2816 4.414425 32.373489 24.490639
2009-07-14 13:02:30 51°29.667 3°2.801 19.32 4.406847 32.276359 25.18712
2009-07-14 13:03:30 51°29.714 3°3.08 19.3809 4.403317 32.216172 25.813953
2009-07-14 13:04:30 51°29.759 3°3.36 19.4366 4.403627 32.165306 26.545258
2009-07-14 13:05:30 51°29.803 3°3.64 19.4696 4.406118 32.152713 26.64973
2009-07-14 13:06:30 51°29.825 3°3.92 19.5187 4.408193 32.142145 26.823851
2009-07-14 13:07:30 51°29.81 3°4.136 19.5135 4.415563 32.165757 26.092546
2009-07-14 13:08:30 51°29.782 3°4.239 19.4987 4.416705 32.187001 25.570185
2009-07-14 13:09:30 51°29.743 3°4.294 19.4634 4.415356 32.192745 25.256768
2009-07-14 13:10:30 51°29.701 3°4.347 19.4449 4.413072 32.193872 25.082648
2009-07-14 13:11:30 51°29.665 3°4.439 19.4406 4.410893 32.192258 24.734408
2009-07-14 13:12:30 51°29.618 3°4.542 19.4447 4.410062 32.181293 24.177223
2009-07-14 13:13:30 51°29.571 3°4.651 19.4446 4.408609 32.169441 24.003102
2009-07-14 13:14:30 51°29.531 3°4.764 19.4591 4.406844 32.156844 23.933454
2009-07-14 13:15:30 51°29.467 3°4.859 19.4904 4.406844 32.136523 23.863806
2009-07-14 13:16:30 51°29.391 3°4.939 19.4461 4.407882 32.137219 23.89863
2009-07-14 13:17:30 51°29.311 3°5.014 19.3785 4.40425 32.15123 24.177223
2009-07-14 13:18:30 51°29.24 3°5.104 19.3779 4.395843 32.117913 24.107575
2009-07-14 13:19:30 51°29.166 3°5.191 19.3698 4.393559 32.099268 24.037926
2009-07-14 13:20:30 51°29.085 3°5.271 19.3539 4.390238 32.078726 24.07275
2009-07-14 13:21:30 51°28.999 3°5.343 19.3426 4.3892 32.081014 24.212047
2009-07-14 13:22:30 51°28.91 3°5.369 19.343 4.386501 32.065549 24.351343
2009-07-14 13:23:30 51°28.829 3°5.374 19.3324 4.387228 32.071485 24.420991
2009-07-14 13:24:30 51°28.753 3°5.375 19.322 4.386294 32.072827 24.664759
2009-07-14 13:25:30 51°28.679 3°5.377 19.3233 4.38536 32.072973 24.769232
2009-07-14 13:26:30 51°28.607 3°5.379 19.3207 4.385671 32.073124 25.013
2009-07-14 13:27:30 51°28.537 3°5.388 19.3298 4.383699 32.057008 25.291592
2009-07-14 13:28:30 51°28.468 3°5.402 19.3478 4.384633 32.059855 25.430889
2009-07-14 13:29:30 51°28.398 3°5.413 19.351 4.387435 32.066602 25.535361
2009-07-14 13:30:30 51°28.33 3°5.426 19.3577 4.387539 32.068646 25.744305
2009-07-14 13:31:30 51°28.261 3°5.438 19.3591 4.388266 32.069198 25.709481
2009-07-14 13:32:30 51°28.192 3°5.453 19.353 4.388266 32.069796 25.813953
2009-07-14 13:33:30 51°28.124 3°5.468 19.3511 4.387954 32.070841 25.674657
2009-07-14 13:34:30 51°28.053 3°5.474 19.3523 4.387747 32.070341 25.674657
2009-07-14 13:35:30 51°27.983 3°5.447 19.3813 4.387954 32.070243 25.570185
2009-07-14 13:36:30 51°27.916 3°5.418 19.3886 4.39003 32.062092 25.256768
2009-07-14 13:37:30 51°27.845 3°5.405 19.3983 4.390756 32.063841 25.326416
2009-07-14 13:38:30 51°27.756 3°5.29 19.4031 4.391586 32.062257 25.326416
2009-07-14 13:39:30 51°27.672 3°5.064 19.407 4.392105 32.062909 25.639833
2009-07-14 13:40:30 51°27.578 3°4.811 19.3856 4.391794 32.066936 26.022897
2009-07-14 13:41:30 51°27.477 3°4.536 19.3838 4.390549 32.067522 26.64973
2009-07-14 13:42:30 51°27.373 3°4.24 19.3726 4.390341 32.066425 26.684555
2009-07-14 13:43:30 51°27.267 3°3.943 19.3535 4.389096 32.06522 26.719379
2009-07-14 13:44:30 51°27.161 3°3.646 19.3346 4.386605 32.061016 26.684555
2009-07-14 13:45:30 51°27.054 3°3.349 19.3192 4.384529 32.056017 26.64973
2009-07-14 13:46:30 51°26.95 3°3.047 19.3088 4.382246 32.04932 26.789027
2009-07-14 13:47:30 51°26.845 3°2.743 19.3008 4.38017 32.042523 27.241739
2009-07-14 13:48:30 51°26.738 3°2.444 19.3068 4.379028 32.034984 27.694452
2009-07-14 13:49:30 51°26.632 3°2.143 19.3186 4.378613 32.026807 28.356109
2009-07-14 13:50:30 51°26.526 3°1.842 19.3508 4.379547 32.017707 28.739174
2009-07-14 13:51:30 51°26.418 3°1.546 19.3545 4.380896 32.010814 28.982942
2009-07-14 13:52:30 51°26.313 3°1.248 19.3515 4.381207 32.013357 29.435655
2009-07-14 13:53:30 51°26.211 3°0.949 19.3456 4.381311 32.015398 29.99284
2009-07-14 13:54:30 51°26.106 3°0.653 19.3423 4.381311 32.020771 30.5152
2009-07-14 13:55:30 51°26.004 3°0.352 19.3328 4.38183 32.028593 31.316154
2009-07-14 13:56:30 51°25.9 3°0.05 19.3362 4.382453 32.037863 31.664394
2009-07-14 13:57:30 51°25.793 2°59.75 19.3465 4.383387 32.040115 31.734042
2009-07-14 13:58:30 51°25.686 2°59.45 19.3497 4.383491 32.036183 31.350978
2009-07-14 13:59:30 51°25.582 2°59.146 19.3627 4.382972 32.028958 30.933089
2009-07-14 14:00:30 51°25.477 2°58.844 19.3813 4.383491 32.020063 30.132136
2009-07-14 14:01:30 51°25.372 2°58.541 19.4002 4.384217 32.013465 29.331183
2009-07-14 14:02:30 51°25.265 2°58.241 19.4028 4.38567 32.013397 28.948118
2009-07-14 14:03:30 51°25.16 2°57.941 19.4206 4.386708 32.020075 28.599877
2009-07-14 14:04:30 51°24.998 2°57.728 19.4808 4.38951 32.024453 28.216813
2009-07-14 14:05:30 51°24.798 2°57.6 19.4905 4.39636 32.028477 27.903396
2009-07-14 14:06:30 51°24.597 2°57.488 19.4133 4.400512 32.079557 27.485508
2009-07-14 14:07:30 51°24.397 2°57.377 19.3374 4.401966 32.154143 26.963147
2009-07-14 14:08:30 51°24.196 2°57.267 19.2851 4.401552 32.198138 26.893499
2009-07-14 14:09:30 51°23.998 2°57.151 19.2312 4.399684 32.224356 26.928323
2009-07-14 14:10:30 51°23.797 2°57.042 19.2088 4.396779 32.231288 27.067619
2009-07-14 14:11:30 51°23.598 2°56.934 19.1934 4.394184 32.234153 27.102443
2009-07-14 14:12:30 51°23.402 2°56.813 19.1912 4.393146 32.232887 26.963147
2009-07-14 14:13:30 51°23.215 2°56.677 19.2257 4.392212 32.224623 26.963147
2009-07-14 14:14:30 51°23.029 2°56.537 19.3291 4.386295 32.12498 27.102443
2009-07-14 14:15:30 51°22.842 2°56.399 19.4898 4.379547 31.990256 26.963147
2009-07-14 14:16:30 51°22.652 2°56.269 19.6158 4.371863 31.800218 26.684555
2009-07-14 14:17:30 51°22.465 2°56.137 19.5941 4.368022 31.712566 26.684555
2009-07-14 14:18:30 51°22.28 2°55.999 19.544 4.364909 31.713725 26.963147
2009-07-14 14:19:30 51°22.094 2°55.864 19.5365 4.359305 31.698188 26.858675
2009-07-14 14:20:30 51°21.911 2°55.727 19.5377 4.354634 31.658495 26.719379
2009-07-14 14:21:30 51°21.731 2°55.593 19.575 4.350794 31.620864 26.545258
2009-07-14 14:22:30 51°21.55 2°55.462 19.6071 4.348095 31.57321 26.47561
2009-07-14 14:23:30 51°21.371 2°55.325 19.6137 4.346122 31.534445 26.336314
2009-07-14 14:24:30 51°21.19 2°55.195 19.5583 4.344047 31.523458 26.30149
2009-07-14 14:25:30 51°21.01 2°55.057 19.5115 4.339688 31.531905 26.12737
2009-07-14 14:26:30 51°20.829 2°54.925 19.4963 4.337613 31.540791 26.092546
2009-07-14 14:27:30 51°20.649 2°54.794 19.49 4.336576 31.542898 26.162194
2009-07-14 14:28:30 51°20.467 2°54.667 19.4706 4.336679 31.549598 26.266666
2009-07-14 14:29:30 51°20.287 2°54.535 19.4663 4.335953 31.557173 26.231842
2009-07-14 14:30:30 51°20.11 2°54.393 19.4892 4.33834 31.561918 26.371138
2009-07-14 14:31:30 51°19.935 2°54.249 19.4679 4.341869 31.593523 26.614906
2009-07-14 14:32:30 51°19.762 2°54.103 19.4594 4.343737 31.620449 26.580082
2009-07-14 14:33:30 51°19.588 2°53.958 19.4532 4.345813 31.647321 26.64973
2009-07-14 14:34:30 51°19.414 2°53.816 19.4795 4.350172 31.676891 26.545258
2009-07-14 14:35:30 51°19.242 2°53.669 19.4914 4.356088 31.713228 26.510434
2009-07-14 14:36:30 51°19.074 2°53.518 19.5218 4.363353 31.755214 26.684555
2009-07-14 14:37:30 51°18.903 2°53.367 19.5349 4.370826 31.79945 27.102443
2009-07-14 14:38:30 51°18.732 2°53.217 19.5609 4.376326 31.828225 27.276563
2009-07-14 14:39:30 51°18.562 2°53.066 19.5685 4.382865 31.868366 27.520332
2009-07-14 14:40:30 51°18.391 2°52.919 19.5811 4.390338 31.92258 27.694452
2009-07-14 14:41:30 51°18.221 2°52.771 19.5875 4.399265 31.985043 28.042693
2009-07-14 14:42:30 51°18.05 2°52.635 19.5903 4.406323 32.039431 28.530229
2009-07-14 14:43:30 51°17.871 2°52.526 19.6059 4.415354 32.108071 29.366007
2009-07-14 14:44:30 51°17.689 2°52.447 19.6212 4.424177 32.167287 29.783895
2009-07-14 14:45:30 51°17.497 2°52.417 19.636 4.43217 32.222118 29.99284
2009-07-14 14:46:30 51°17.307 2°52.422 19.6578 4.439644 32.269732 30.097312
2009-07-14 14:47:30 51°17.12 2°52.481 19.6821 4.447637 32.317361 30.271432
2009-07-14 14:48:30 51°16.936 2°52.572 19.6857 4.455734 32.368794 30.271432
2009-07-14 14:49:30 51°16.753 2°52.67 19.6894 4.465492 32.445075 30.550024
2009-07-14 14:50:30 51°16.568 2°52.771 19.6986 4.477016 32.535717 30.793793
2009-07-14 14:51:30 51°16.383 2°52.876 19.7063 4.490616 32.634827 30.724145
2009-07-14 14:52:30 51°16.199 2°52.972 19.7118 4.507123 32.768451 30.375904
2009-07-14 14:53:30 51°16.023 2°53.083 19.6917 4.510861 32.796431 29.853543
2009-07-14 14:54:30 51°15.854 2°53.222 19.6488 4.496949 32.704432 29.261534
2009-07-14 14:55:30 51°15.688 2°53.364 19.6136 4.488333 32.671774 29.400831
2009-07-14 14:56:30 51°15.525 2°53.513 19.6817 4.480546 32.609592 29.923192
2009-07-14 14:57:30 51°15.363 2°53.666 19.7112 4.478469 32.540918 29.540127
2009-07-14 14:58:30 51°15.202 2°53.822 19.689 4.466945 32.4431 28.913294
2009-07-14 14:59:30 51°15.043 2°53.987 19.678 4.445872 32.290493 28.286461
2009-07-14 15:00:30 51°14.891 2°54.168 19.6568 4.440681 32.253117 28.565053
2009-07-14 15:01:30 51°14.751 2°54.374 19.675 4.445249 32.296772 29.122238
2009-07-14 15:02:30 51°14.609 2°54.581 19.6767 4.44826 32.312866 29.296359
2009-07-14 15:03:30 51°14.479 2°54.809 19.8717 0.238995 1.37549 32.91806
2009-07-14 15:04:30 51°14.361 2°55.065 19.948 0.2567 1.483116 32.047459
2009-07-14 15:05:30 51°14.24 2°55.276 19.9939 0.196174 1.117105 31.977811
2009-07-14 15:06:30 51°14.124 2°55.412 20.0449 0.200806 1.144259 31.908163
2009-07-14 15:07:30 51°13.997 2°55.503 20.0815 0.18444 1.045924 31.80369
2009-07-14 15:08:30 51°13.887 2°55.579 20.1904 0.18866 1.070483 31.734042
2009-07-14 15:09:30 51°13.794 2°55.664 20.215 0.18866 1.069869 31.734042
2009-07-14 15:10:30 51°13.73 2°55.763 20.3011 0.188454 1.068048 31.734042
2009-07-14 15:11:30 51°13.689 2°55.848 20.3423 0.186396 1.055283 31.699218
2009-07-14 15:12:30 51°13.669 2°55.925 20.438 0.18619 1.053531 31.699218
2009-07-14 15:13:30 51°13.663 2°55.954 20.5167 0.181558 1.025544 31.734042